sensor_id;sensor_type;location;lat;lon;timestamp;P1;durP1;ratioP1;P2;durP2;ratioP2
40256;SDS011;25977;45.462;9.210;2023-08-31T00:01:49;4.07;;;1.00;;
40256;SDS011;25977;45.462;9.210;2023-08-31T00:04:14;0.73;;;0.65;;
40256;SDS011;25977;45.462;9.210;2023-08-31T00:06:41;1.38;;;0.70;;
40256;SDS011;25977;45.462;9.210;2023-08-31T00:09:07;0.57;;;0.57;;
40256;SDS011;25977;45.462;9.210;2023-08-31T00:11:37;3.38;;;0.70;;
40256;SDS011;25977;45.462;9.210;2023-08-31T00:14:03;0.60;;;0.60;;
40256;SDS011;25977;45.462;9.210;2023-08-31T00:16:29;0.60;;;0.60;;
40256;SDS011;25977;45.462;9.210;2023-08-31T00:18:58;1.08;;;0.70;;
40256;SDS011;25977;45.462;9.210;2023-08-31T00:21:24;1.15;;;0.80;;
40256;SDS011;25977;45.462;9.210;2023-08-31T00:23:50;3.20;;;0.88;;
40256;SDS011;25977;45.462;9.210;2023-08-31T00:26:15;1.10;;;1.00;;
40256;SDS011;25977;45.462;9.210;2023-08-31T00:28:44;3.28;;;1.05;;
40256;SDS011;25977;45.462;9.210;2023-08-31T00:31:10;2.17;;;0.90;;
40256;SDS011;25977;45.462;9.210;2023-08-31T00:33:38;1.30;;;1.10;;
40256;SDS011;25977;45.462;9.210;2023-08-31T00:36:04;1.38;;;1.23;;
40256;SDS011;25977;45.462;9.210;2023-08-31T00:38:30;2.65;;;0.90;;
40256;SDS011;25977;45.462;9.210;2023-08-31T00:40:56;1.88;;;1.02;;
40256;SDS011;25977;45.462;9.210;2023-08-31T00:43:22;2.17;;;0.90;;
40256;SDS011;25977;45.462;9.210;2023-08-31T00:45:48;1.75;;;1.40;;
40256;SDS011;25977;45.462;9.210;2023-08-31T00:48:17;1.45;;;0.80;;
40256;SDS011;25977;45.462;9.210;2023-08-31T00:50:44;4.45;;;1.33;;
40256;SDS011;25977;45.462;9.210;2023-08-31T00:53:10;1.38;;;0.77;;
40256;SDS011;25977;45.462;9.210;2023-08-31T00:55:36;0.88;;;0.80;;
40256;SDS011;25977;45.462;9.210;2023-08-31T00:58:05;1.55;;;0.82;;
40256;SDS011;25977;45.462;9.210;2023-08-31T01:00:35;1.58;;;1.00;;
40256;SDS011;25977;45.462;9.210;2023-08-31T01:03:35;1.13;;;0.82;;
40256;SDS011;25977;45.462;9.210;2023-08-31T01:08:56;3.38;;;1.33;;
40256;SDS011;25977;45.462;9.210;2023-08-31T01:11:30;1.05;;;0.95;;
40256;SDS011;25977;45.462;9.210;2023-08-31T01:14:12;0.88;;;0.88;;
40256;SDS011;25977;45.462;9.210;2023-08-31T01:16:43;3.60;;;0.88;;
40256;SDS011;25977;45.462;9.210;2023-08-31T01:19:30;2.15;;;1.52;;
40256;SDS011;25977;45.462;9.210;2023-08-31T01:22:05;5.35;;;1.40;;
40256;SDS011;25977;45.462;9.210;2023-08-31T01:24:36;1.88;;;0.90;;
40256;SDS011;25977;45.462;9.210;2023-08-31T01:27:02;4.82;;;1.25;;
40256;SDS011;25977;45.462;9.210;2023-08-31T01:29:29;2.22;;;0.90;;
40256;SDS011;25977;45.462;9.210;2023-08-31T01:31:55;1.95;;;0.80;;
40256;SDS011;25977;45.462;9.210;2023-08-31T01:34:21;1.05;;;0.95;;
40256;SDS011;25977;45.462;9.210;2023-08-31T01:36:48;2.45;;;0.93;;
40256;SDS011;25977;45.462;9.210;2023-08-31T01:39:26;1.90;;;0.90;;
40256;SDS011;25977;45.462;9.210;2023-08-31T01:42:06;2.75;;;1.38;;
40256;SDS011;25977;45.462;9.210;2023-08-31T01:44:36;0.98;;;0.80;;
40256;SDS011;25977;45.462;9.210;2023-08-31T01:47:06;1.35;;;0.70;;
40256;SDS011;25977;45.462;9.210;2023-08-31T01:49:38;1.10;;;0.85;;
40256;SDS011;25977;45.462;9.210;2023-08-31T01:52:04;2.67;;;0.90;;
40256;SDS011;25977;45.462;9.210;2023-08-31T01:54:31;1.10;;;0.88;;
40256;SDS011;25977;45.462;9.210;2023-08-31T01:56:58;1.45;;;1.00;;
40256;SDS011;25977;45.462;9.210;2023-08-31T01:59:24;1.08;;;0.77;;
40256;SDS011;25977;45.462;9.210;2023-08-31T02:01:50;1.10;;;1.00;;
40256;SDS011;25977;45.462;9.210;2023-08-31T02:04:16;0.73;;;0.70;;
40256;SDS011;25977;45.462;9.210;2023-08-31T02:06:42;1.02;;;0.63;;
40256;SDS011;25977;45.462;9.210;2023-08-31T02:09:08;1.80;;;1.00;;
40256;SDS011;25977;45.462;9.210;2023-08-31T02:11:34;1.38;;;1.27;;
40256;SDS011;25977;45.462;9.210;2023-08-31T02:14:03;0.90;;;0.82;;
40256;SDS011;25977;45.462;9.210;2023-08-31T02:16:33;3.42;;;0.80;;
40256;SDS011;25977;45.462;9.210;2023-08-31T02:18:59;0.90;;;0.90;;
40256;SDS011;25977;45.462;9.210;2023-08-31T02:21:25;1.15;;;0.65;;
40256;SDS011;25977;45.462;9.210;2023-08-31T02:23:52;1.52;;;1.13;;
40256;SDS011;25977;45.462;9.210;2023-08-31T02:26:17;2.28;;;0.60;;
40256;SDS011;25977;45.462;9.210;2023-08-31T02:28:45;2.65;;;0.93;;
40256;SDS011;25977;45.462;9.210;2023-08-31T02:31:11;1.17;;;1.00;;
40256;SDS011;25977;45.462;9.210;2023-08-31T02:33:38;0.77;;;0.70;;
40256;SDS011;25977;45.462;9.210;2023-08-31T02:36:04;1.13;;;0.82;;
40256;SDS011;25977;45.462;9.210;2023-08-31T02:38:30;2.50;;;0.80;;
40256;SDS011;25977;45.462;9.210;2023-08-31T02:40:55;2.10;;;0.98;;
40256;SDS011;25977;45.462;9.210;2023-08-31T02:43:21;0.55;;;0.55;;
40256;SDS011;25977;45.462;9.210;2023-08-31T02:45:48;1.67;;;0.80;;
40256;SDS011;25977;45.462;9.210;2023-08-31T02:48:14;1.48;;;0.85;;
40256;SDS011;25977;45.462;9.210;2023-08-31T02:50:40;3.70;;;0.70;;
40256;SDS011;25977;45.462;9.210;2023-08-31T02:53:06;2.00;;;1.80;;
40256;SDS011;25977;45.462;9.210;2023-08-31T02:55:32;0.80;;;0.75;;
40256;SDS011;25977;45.462;9.210;2023-08-31T02:57:58;0.70;;;0.70;;
40256;SDS011;25977;45.462;9.210;2023-08-31T03:00:24;3.35;;;0.95;;
40256;SDS011;25977;45.462;9.210;2023-08-31T03:02:50;0.88;;;0.77;;
40256;SDS011;25977;45.462;9.210;2023-08-31T03:05:19;1.95;;;1.00;;
40256;SDS011;25977;45.462;9.210;2023-08-31T03:07:46;0.73;;;0.73;;
40256;SDS011;25977;45.462;9.210;2023-08-31T03:10:12;3.40;;;0.98;;
40256;SDS011;25977;45.462;9.210;2023-08-31T03:12:38;2.75;;;1.85;;
40256;SDS011;25977;45.462;9.210;2023-08-31T03:15:05;0.75;;;0.75;;
40256;SDS011;25977;45.462;9.210;2023-08-31T03:17:31;1.00;;;0.82;;
40256;SDS011;25977;45.462;9.210;2023-08-31T03:19:56;1.35;;;0.60;;
40256;SDS011;25977;45.462;9.210;2023-08-31T03:22:22;2.40;;;1.05;;
40256;SDS011;25977;45.462;9.210;2023-08-31T03:24:48;2.50;;;0.60;;
40256;SDS011;25977;45.462;9.210;2023-08-31T03:27:14;2.67;;;0.65;;
40256;SDS011;25977;45.462;9.210;2023-08-31T03:29:41;2.40;;;0.75;;
40256;SDS011;25977;45.462;9.210;2023-08-31T03:32:07;1.35;;;1.30;;
40256;SDS011;25977;45.462;9.210;2023-08-31T03:34:33;4.10;;;0.90;;
40256;SDS011;25977;45.462;9.210;2023-08-31T03:36:58;1.08;;;0.40;;
40256;SDS011;25977;45.462;9.210;2023-08-31T03:39:24;2.72;;;0.93;;
40256;SDS011;25977;45.462;9.210;2023-08-31T03:41:51;2.28;;;0.80;;
40256;SDS011;25977;45.462;9.210;2023-08-31T03:44:16;1.90;;;0.77;;
40256;SDS011;25977;45.462;9.210;2023-08-31T03:46:42;7.82;;;0.90;;
40256;SDS011;25977;45.462;9.210;2023-08-31T03:49:08;2.05;;;0.70;;
40256;SDS011;25977;45.462;9.210;2023-08-31T03:51:34;1.20;;;0.63;;
40256;SDS011;25977;45.462;9.210;2023-08-31T03:54:00;2.45;;;0.70;;
40256;SDS011;25977;45.462;9.210;2023-08-31T03:56:26;2.30;;;0.52;;
40256;SDS011;25977;45.462;9.210;2023-08-31T03:58:52;1.90;;;0.65;;
40256;SDS011;25977;45.462;9.210;2023-08-31T04:01:18;1.35;;;0.75;;
40256;SDS011;25977;45.462;9.210;2023-08-31T04:03:45;1.75;;;0.90;;
40256;SDS011;25977;45.462;9.210;2023-08-31T04:06:11;3.03;;;0.88;;
40256;SDS011;25977;45.462;9.210;2023-08-31T04:08:39;2.72;;;0.82;;
40256;SDS011;25977;45.462;9.210;2023-08-31T04:11:05;2.95;;;1.20;;
40256;SDS011;25977;45.462;9.210;2023-08-31T04:13:31;0.82;;;0.82;;
40256;SDS011;25977;45.462;9.210;2023-08-31T04:15:57;1.23;;;0.55;;
40256;SDS011;25977;45.462;9.210;2023-08-31T04:18:22;2.15;;;0.73;;
40256;SDS011;25977;45.462;9.210;2023-08-31T04:20:49;2.33;;;1.00;;
40256;SDS011;25977;45.462;9.210;2023-08-31T04:23:17;1.75;;;0.80;;
40256;SDS011;25977;45.462;9.210;2023-08-31T04:25:43;3.20;;;1.63;;
40256;SDS011;25977;45.462;9.210;2023-08-31T04:28:09;2.50;;;1.55;;
40256;SDS011;25977;45.462;9.210;2023-08-31T04:30:35;4.43;;;1.75;;
40256;SDS011;25977;45.462;9.210;2023-08-31T04:33:00;1.90;;;1.77;;
40256;SDS011;25977;45.462;9.210;2023-08-31T04:35:26;2.85;;;1.90;;
40256;SDS011;25977;45.462;9.210;2023-08-31T04:37:52;6.38;;;1.67;;
40256;SDS011;25977;45.462;9.210;2023-08-31T04:40:17;3.40;;;2.03;;
40256;SDS011;25977;45.462;9.210;2023-08-31T04:42:43;5.68;;;2.20;;
40256;SDS011;25977;45.462;9.210;2023-08-31T04:45:09;2.85;;;2.60;;
40256;SDS011;25977;45.462;9.210;2023-08-31T04:47:36;2.47;;;2.28;;
40256;SDS011;25977;45.462;9.210;2023-08-31T04:50:02;4.15;;;2.83;;
40256;SDS011;25977;45.462;9.210;2023-08-31T04:52:28;3.70;;;2.38;;
40256;SDS011;25977;45.462;9.210;2023-08-31T04:54:54;7.32;;;3.88;;
40256;SDS011;25977;45.462;9.210;2023-08-31T04:57:19;8.65;;;3.03;;
40256;SDS011;25977;45.462;9.210;2023-08-31T04:59:45;6.60;;;3.63;;
40256;SDS011;25977;45.462;9.210;2023-08-31T05:02:12;3.20;;;2.78;;
40256;SDS011;25977;45.462;9.210;2023-08-31T05:04:37;4.43;;;4.03;;
40256;SDS011;25977;45.462;9.210;2023-08-31T05:07:03;5.72;;;3.63;;
40256;SDS011;25977;45.462;9.210;2023-08-31T05:09:29;7.93;;;4.03;;
40256;SDS011;25977;45.462;9.210;2023-08-31T05:11:59;7.55;;;4.97;;
40256;SDS011;25977;45.462;9.210;2023-08-31T05:14:29;8.40;;;4.60;;
40256;SDS011;25977;45.462;9.210;2023-08-31T05:16:55;5.22;;;4.45;;
40256;SDS011;25977;45.462;9.210;2023-08-31T05:19:21;4.05;;;3.30;;
40256;SDS011;25977;45.462;9.210;2023-08-31T05:21:46;7.35;;;4.45;;
40256;SDS011;25977;45.462;9.210;2023-08-31T05:24:12;14.07;;;4.47;;
40256;SDS011;25977;45.462;9.210;2023-08-31T05:26:39;6.50;;;4.43;;
40256;SDS011;25977;45.462;9.210;2023-08-31T05:29:05;6.07;;;3.80;;
40256;SDS011;25977;45.462;9.210;2023-08-31T05:31:31;11.60;;;4.45;;
40256;SDS011;25977;45.462;9.210;2023-08-31T05:33:57;10.55;;;4.28;;
40256;SDS011;25977;45.462;9.210;2023-08-31T05:36:22;5.50;;;4.50;;
40256;SDS011;25977;45.462;9.210;2023-08-31T05:38:48;7.22;;;3.60;;
40256;SDS011;25977;45.462;9.210;2023-08-31T05:41:15;5.78;;;3.58;;
40256;SDS011;25977;45.462;9.210;2023-08-31T05:43:41;4.43;;;4.03;;
40256;SDS011;25977;45.462;9.210;2023-08-31T05:46:07;5.85;;;3.63;;
40256;SDS011;25977;45.462;9.210;2023-08-31T05:48:34;5.18;;;3.38;;
40256;SDS011;25977;45.462;9.210;2023-08-31T05:51:01;5.20;;;2.75;;
40256;SDS011;25977;45.462;9.210;2023-08-31T05:53:28;3.72;;;3.00;;
40256;SDS011;25977;45.462;9.210;2023-08-31T05:55:57;4.55;;;2.60;;
40256;SDS011;25977;45.462;9.210;2023-08-31T06:00:55;4.13;;;2.28;;
40256;SDS011;25977;45.462;9.210;2023-08-31T06:03:22;4.57;;;1.83;;
40256;SDS011;25977;45.462;9.210;2023-08-31T06:05:47;2.40;;;1.48;;
40256;SDS011;25977;45.462;9.210;2023-08-31T06:08:13;5.47;;;2.45;;
40256;SDS011;25977;45.462;9.210;2023-08-31T06:10:39;4.13;;;1.60;;
40256;SDS011;25977;45.462;9.210;2023-08-31T06:13:04;8.77;;;2.75;;
40256;SDS011;25977;45.462;9.210;2023-08-31T06:15:30;2.85;;;2.20;;
40256;SDS011;25977;45.462;9.210;2023-08-31T06:17:56;3.40;;;1.83;;
40256;SDS011;25977;45.462;9.210;2023-08-31T06:20:21;3.00;;;1.90;;
40256;SDS011;25977;45.462;9.210;2023-08-31T06:22:47;6.68;;;2.40;;
40256;SDS011;25977;45.462;9.210;2023-08-31T06:25:13;4.30;;;1.98;;
40256;SDS011;25977;45.462;9.210;2023-08-31T06:27:41;6.18;;;1.75;;
40256;SDS011;25977;45.462;9.210;2023-08-31T06:30:08;2.75;;;1.75;;
40256;SDS011;25977;45.462;9.210;2023-08-31T06:32:37;5.30;;;2.03;;
40256;SDS011;25977;45.462;9.210;2023-08-31T06:35:03;3.95;;;1.73;;
40256;SDS011;25977;45.462;9.210;2023-08-31T06:37:28;3.17;;;1.88;;
40256;SDS011;25977;45.462;9.210;2023-08-31T06:39:54;5.65;;;2.03;;
40256;SDS011;25977;45.462;9.210;2023-08-31T06:42:20;4.00;;;1.95;;
40256;SDS011;25977;45.462;9.210;2023-08-31T06:44:45;5.13;;;1.67;;
40256;SDS011;25977;45.462;9.210;2023-08-31T06:47:11;3.17;;;1.95;;
40256;SDS011;25977;45.462;9.210;2023-08-31T06:49:38;1.60;;;1.23;;
40256;SDS011;25977;45.462;9.210;2023-08-31T06:52:04;1.63;;;1.52;;
40256;SDS011;25977;45.462;9.210;2023-08-31T06:54:32;2.13;;;1.73;;
40256;SDS011;25977;45.462;9.210;2023-08-31T06:56:58;1.67;;;1.58;;
40256;SDS011;25977;45.462;9.210;2023-08-31T06:59:24;5.70;;;2.17;;
40256;SDS011;25977;45.462;9.210;2023-08-31T07:01:50;3.80;;;1.92;;
40256;SDS011;25977;45.462;9.210;2023-08-31T07:04:15;3.72;;;1.48;;
40256;SDS011;25977;45.462;9.210;2023-08-31T07:06:41;2.63;;;1.63;;
40256;SDS011;25977;45.462;9.210;2023-08-31T07:09:07;4.75;;;2.47;;
40256;SDS011;25977;45.462;9.210;2023-08-31T07:11:34;4.30;;;3.25;;
40256;SDS011;25977;45.462;9.210;2023-08-31T07:13:59;2.45;;;2.25;;
40256;SDS011;25977;45.462;9.210;2023-08-31T07:16:25;2.42;;;1.52;;
40256;SDS011;25977;45.462;9.210;2023-08-31T07:18:51;4.20;;;1.70;;
40256;SDS011;25977;45.462;9.210;2023-08-31T07:21:17;1.30;;;1.15;;
40256;SDS011;25977;45.462;9.210;2023-08-31T07:23:42;2.22;;;1.20;;
40256;SDS011;25977;45.462;9.210;2023-08-31T07:26:08;2.72;;;1.30;;
40256;SDS011;25977;45.462;9.210;2023-08-31T07:28:34;1.33;;;1.20;;
40256;SDS011;25977;45.462;9.210;2023-08-31T07:31:03;4.03;;;1.85;;
40256;SDS011;25977;45.462;9.210;2023-08-31T07:33:30;1.10;;;1.00;;
40256;SDS011;25977;45.462;9.210;2023-08-31T07:36:00;3.60;;;1.27;;
40256;SDS011;25977;45.462;9.210;2023-08-31T07:38:27;4.35;;;1.75;;
40256;SDS011;25977;45.462;9.210;2023-08-31T07:40:53;1.55;;;1.40;;
40256;SDS011;25977;45.462;9.210;2023-08-31T07:43:18;3.05;;;1.77;;
40256;SDS011;25977;45.462;9.210;2023-08-31T07:45:44;3.58;;;1.17;;
40256;SDS011;25977;45.462;9.210;2023-08-31T07:48:10;2.20;;;1.67;;
40256;SDS011;25977;45.462;9.210;2023-08-31T07:50:35;1.98;;;1.17;;
40256;SDS011;25977;45.462;9.210;2023-08-31T07:53:01;1.90;;;0.75;;
40256;SDS011;25977;45.462;9.210;2023-08-31T07:55:28;1.05;;;1.05;;
40256;SDS011;25977;45.462;9.210;2023-08-31T07:57:54;2.30;;;1.05;;
40256;SDS011;25977;45.462;9.210;2023-08-31T08:00:19;1.77;;;0.90;;
40256;SDS011;25977;45.462;9.210;2023-08-31T08:02:45;1.85;;;0.70;;
40256;SDS011;25977;45.462;9.210;2023-08-31T08:05:11;4.15;;;1.33;;
40256;SDS011;25977;45.462;9.210;2023-08-31T08:07:37;4.47;;;1.05;;
40256;SDS011;25977;45.462;9.210;2023-08-31T08:10:03;3.47;;;1.67;;
40256;SDS011;25977;45.462;9.210;2023-08-31T08:12:36;3.65;;;1.40;;
40256;SDS011;25977;45.462;9.210;2023-08-31T08:15:03;4.47;;;1.00;;
40256;SDS011;25977;45.462;9.210;2023-08-31T08:17:29;3.65;;;0.95;;
40256;SDS011;25977;45.462;9.210;2023-08-31T08:19:55;4.85;;;0.80;;
40256;SDS011;25977;45.462;9.210;2023-08-31T08:22:20;3.15;;;1.20;;
40256;SDS011;25977;45.462;9.210;2023-08-31T08:24:46;3.03;;;0.80;;
40256;SDS011;25977;45.462;9.210;2023-08-31T08:27:12;3.13;;;1.75;;
40256;SDS011;25977;45.462;9.210;2023-08-31T08:29:37;1.27;;;1.10;;
40256;SDS011;25977;45.462;9.210;2023-08-31T08:32:03;2.30;;;1.55;;
40256;SDS011;25977;45.462;9.210;2023-08-31T08:34:32;5.03;;;1.67;;
40256;SDS011;25977;45.462;9.210;2023-08-31T08:36:57;3.58;;;1.30;;
40256;SDS011;25977;45.462;9.210;2023-08-31T08:39:25;2.65;;;0.85;;
40256;SDS011;25977;45.462;9.210;2023-08-31T08:41:51;1.00;;;0.90;;
40256;SDS011;25977;45.462;9.210;2023-08-31T08:44:19;1.27;;;0.90;;
40256;SDS011;25977;45.462;9.210;2023-08-31T08:46:50;1.20;;;1.10;;
40256;SDS011;25977;45.462;9.210;2023-08-31T08:49:17;2.67;;;1.63;;
40256;SDS011;25977;45.462;9.210;2023-08-31T08:51:44;2.85;;;2.53;;
40256;SDS011;25977;45.462;9.210;2023-08-31T08:54:12;2.13;;;1.42;;
40256;SDS011;25977;45.462;9.210;2023-08-31T08:56:38;3.25;;;2.00;;
40256;SDS011;25977;45.462;9.210;2023-08-31T08:59:04;3.78;;;1.40;;
40256;SDS011;25977;45.462;9.210;2023-08-31T09:01:31;3.17;;;1.30;;
40256;SDS011;25977;45.462;9.210;2023-08-31T09:04:00;3.75;;;2.50;;
40256;SDS011;25977;45.462;9.210;2023-08-31T09:06:27;1.63;;;1.30;;
40256;SDS011;25977;45.462;9.210;2023-08-31T09:08:56;5.45;;;1.33;;
40256;SDS011;25977;45.462;9.210;2023-08-31T09:11:22;1.70;;;1.08;;
40256;SDS011;25977;45.462;9.210;2023-08-31T09:13:49;2.90;;;1.25;;
40256;SDS011;25977;45.462;9.210;2023-08-31T09:16:28;2.40;;;1.30;;
40256;SDS011;25977;45.462;9.210;2023-08-31T09:18:56;3.88;;;1.20;;
40256;SDS011;25977;45.462;9.210;2023-08-31T09:21:44;3.88;;;1.45;;
40256;SDS011;25977;45.462;9.210;2023-08-31T09:24:11;4.05;;;1.30;;
40256;SDS011;25977;45.462;9.210;2023-08-31T09:26:56;9.88;;;1.95;;
40256;SDS011;25977;45.462;9.210;2023-08-31T09:29:22;2.08;;;1.20;;
40256;SDS011;25977;45.462;9.210;2023-08-31T09:31:48;1.73;;;1.50;;
40256;SDS011;25977;45.462;9.210;2023-08-31T09:34:15;3.25;;;1.42;;
40256;SDS011;25977;45.462;9.210;2023-08-31T09:36:42;1.13;;;0.88;;
40256;SDS011;25977;45.462;9.210;2023-08-31T09:39:09;3.58;;;1.70;;
40256;SDS011;25977;45.462;9.210;2023-08-31T09:41:35;2.65;;;1.33;;
40256;SDS011;25977;45.462;9.210;2023-08-31T09:44:17;3.28;;;1.27;;
40256;SDS011;25977;45.462;9.210;2023-08-31T09:46:44;2.53;;;0.80;;
40256;SDS011;25977;45.462;9.210;2023-08-31T09:49:11;6.07;;;1.83;;
40256;SDS011;25977;45.462;9.210;2023-08-31T09:51:41;5.20;;;1.45;;
40256;SDS011;25977;45.462;9.210;2023-08-31T09:54:12;2.58;;;1.10;;
40256;SDS011;25977;45.462;9.210;2023-08-31T09:56:40;3.67;;;1.30;;
40256;SDS011;25977;45.462;9.210;2023-08-31T09:59:08;3.20;;;1.20;;
40256;SDS011;25977;45.462;9.210;2023-08-31T10:01:36;2.85;;;1.60;;
40256;SDS011;25977;45.462;9.210;2023-08-31T10:04:02;1.40;;;0.80;;
40256;SDS011;25977;45.462;9.210;2023-08-31T10:06:29;3.80;;;1.58;;
40256;SDS011;25977;45.462;9.210;2023-08-31T10:08:56;1.58;;;1.08;;
40256;SDS011;25977;45.462;9.210;2023-08-31T10:11:22;2.30;;;1.27;;
40256;SDS011;25977;45.462;9.210;2023-08-31T10:13:50;3.78;;;1.60;;
40256;SDS011;25977;45.462;9.210;2023-08-31T10:16:18;1.88;;;1.23;;
40256;SDS011;25977;45.462;9.210;2023-08-31T10:18:45;4.10;;;1.40;;
40256;SDS011;25977;45.462;9.210;2023-08-31T10:21:10;1.33;;;0.90;;
40256;SDS011;25977;45.462;9.210;2023-08-31T10:23:45;1.73;;;1.00;;
40256;SDS011;25977;45.462;9.210;2023-08-31T10:26:11;2.35;;;0.98;;
40256;SDS011;25977;45.462;9.210;2023-08-31T10:28:47;6.07;;;1.17;;
40256;SDS011;25977;45.462;9.210;2023-08-31T10:31:16;2.97;;;1.00;;
40256;SDS011;25977;45.462;9.210;2023-08-31T10:36:15;4.47;;;1.85;;
40256;SDS011;25977;45.462;9.210;2023-08-31T10:38:46;2.03;;;1.55;;
40256;SDS011;25977;45.462;9.210;2023-08-31T10:41:24;2.38;;;1.10;;
40256;SDS011;25977;45.462;9.210;2023-08-31T10:46:29;2.08;;;0.88;;
40256;SDS011;25977;45.462;9.210;2023-08-31T10:54:04;3.60;;;1.20;;
40256;SDS011;25977;45.462;9.210;2023-08-31T10:59:23;2.35;;;1.10;;
40256;SDS011;25977;45.462;9.210;2023-08-31T11:01:56;1.50;;;0.98;;
40256;SDS011;25977;45.462;9.210;2023-08-31T11:04:28;1.52;;;1.13;;
40256;SDS011;25977;45.462;9.210;2023-08-31T11:07:14;3.08;;;1.25;;
40256;SDS011;25977;45.462;9.210;2023-08-31T11:09:44;3.78;;;1.33;;
40256;SDS011;25977;45.462;9.210;2023-08-31T11:12:11;9.43;;;1.23;;
40256;SDS011;25977;45.462;9.210;2023-08-31T11:14:38;1.20;;;1.05;;
40256;SDS011;25977;45.462;9.210;2023-08-31T11:17:04;3.10;;;1.63;;
40256;SDS011;25977;45.462;9.210;2023-08-31T11:19:30;7.88;;;1.40;;
40256;SDS011;25977;45.462;9.210;2023-08-31T11:21:57;1.20;;;0.77;;
40256;SDS011;25977;45.462;9.210;2023-08-31T11:24:23;0.90;;;0.77;;
40256;SDS011;25977;45.462;9.210;2023-08-31T11:26:53;0.90;;;0.65;;
40256;SDS011;25977;45.462;9.210;2023-08-31T11:29:22;1.80;;;0.93;;
40256;SDS011;25977;45.462;9.210;2023-08-31T11:31:48;1.80;;;0.95;;
40256;SDS011;25977;45.462;9.210;2023-08-31T11:34:14;2.25;;;0.82;;
40256;SDS011;25977;45.462;9.210;2023-08-31T11:36:42;2.80;;;0.77;;
40256;SDS011;25977;45.462;9.210;2023-08-31T11:39:18;1.20;;;0.80;;
40256;SDS011;25977;45.462;9.210;2023-08-31T11:41:44;2.22;;;0.90;;
40256;SDS011;25977;45.462;9.210;2023-08-31T11:44:13;0.88;;;0.75;;
40256;SDS011;25977;45.462;9.210;2023-08-31T11:46:44;5.72;;;1.30;;
40256;SDS011;25977;45.462;9.210;2023-08-31T11:51:41;1.10;;;0.60;;
40256;SDS011;25977;45.462;9.210;2023-08-31T11:54:09;3.08;;;1.35;;
40256;SDS011;25977;45.462;9.210;2023-08-31T11:56:45;4.10;;;0.80;;
40256;SDS011;25977;45.462;9.210;2023-08-31T11:59:16;1.27;;;0.85;;
40256;SDS011;25977;45.462;9.210;2023-08-31T12:01:45;4.75;;;1.00;;
40256;SDS011;25977;45.462;9.210;2023-08-31T12:04:13;2.22;;;0.93;;
40256;SDS011;25977;45.462;9.210;2023-08-31T12:06:40;1.45;;;1.30;;
40256;SDS011;25977;45.462;9.210;2023-08-31T12:09:09;2.20;;;0.77;;
40256;SDS011;25977;45.462;9.210;2023-08-31T12:11:35;0.93;;;0.70;;
40256;SDS011;25977;45.462;9.210;2023-08-31T12:14:01;8.70;;;1.42;;
40256;SDS011;25977;45.462;9.210;2023-08-31T12:16:42;1.42;;;0.88;;
40256;SDS011;25977;45.462;9.210;2023-08-31T12:19:09;2.47;;;0.70;;
40256;SDS011;25977;45.462;9.210;2023-08-31T12:21:35;2.25;;;0.77;;
40256;SDS011;25977;45.462;9.210;2023-08-31T12:24:01;5.32;;;0.55;;
40256;SDS011;25977;45.462;9.210;2023-08-31T12:26:28;3.22;;;1.08;;
40256;SDS011;25977;45.462;9.210;2023-08-31T12:28:54;1.83;;;0.98;;
40256;SDS011;25977;45.462;9.210;2023-08-31T12:31:20;3.13;;;1.17;;
40256;SDS011;25977;45.462;9.210;2023-08-31T12:33:47;0.90;;;0.60;;
40256;SDS011;25977;45.462;9.210;2023-08-31T12:36:13;0.70;;;0.70;;
40256;SDS011;25977;45.462;9.210;2023-08-31T12:38:39;3.05;;;1.38;;
40256;SDS011;25977;45.462;9.210;2023-08-31T12:41:05;0.93;;;0.60;;
40256;SDS011;25977;45.462;9.210;2023-08-31T12:43:31;2.97;;;0.98;;
40256;SDS011;25977;45.462;9.210;2023-08-31T12:45:57;1.00;;;0.68;;
40256;SDS011;25977;45.462;9.210;2023-08-31T12:48:23;0.95;;;0.65;;
40256;SDS011;25977;45.462;9.210;2023-08-31T12:50:49;1.83;;;0.75;;
40256;SDS011;25977;45.462;9.210;2023-08-31T12:53:15;3.30;;;1.65;;
40256;SDS011;25977;45.462;9.210;2023-08-31T12:55:41;0.88;;;0.65;;
40256;SDS011;25977;45.462;9.210;2023-08-31T12:58:06;1.20;;;0.80;;
40256;SDS011;25977;45.462;9.210;2023-08-31T13:00:32;1.75;;;0.70;;
40256;SDS011;25977;45.462;9.210;2023-08-31T13:02:58;2.60;;;0.70;;
40256;SDS011;25977;45.462;9.210;2023-08-31T13:05:26;2.42;;;0.60;;
40256;SDS011;25977;45.462;9.210;2023-08-31T13:07:54;2.95;;;1.08;;
40256;SDS011;25977;45.462;9.210;2023-08-31T13:10:20;1.15;;;0.55;;
40256;SDS011;25977;45.462;9.210;2023-08-31T13:12:45;7.40;;;0.80;;
40256;SDS011;25977;45.462;9.210;2023-08-31T13:15:11;1.98;;;1.02;;
40256;SDS011;25977;45.462;9.210;2023-08-31T13:17:38;1.65;;;0.75;;
40256;SDS011;25977;45.462;9.210;2023-08-31T13:20:03;0.55;;;0.55;;
40256;SDS011;25977;45.462;9.210;2023-08-31T13:22:30;3.33;;;0.98;;
40256;SDS011;25977;45.462;9.210;2023-08-31T13:24:56;2.35;;;1.75;;
40256;SDS011;25977;45.462;9.210;2023-08-31T13:27:22;2.45;;;0.80;;
40256;SDS011;25977;45.462;9.210;2023-08-31T13:29:47;1.70;;;1.50;;
40256;SDS011;25977;45.462;9.210;2023-08-31T13:32:13;2.65;;;1.30;;
40256;SDS011;25977;45.462;9.210;2023-08-31T13:34:39;1.67;;;0.60;;
40256;SDS011;25977;45.462;9.210;2023-08-31T13:37:05;3.08;;;0.60;;
40256;SDS011;25977;45.462;9.210;2023-08-31T13:39:31;1.63;;;0.65;;
40256;SDS011;25977;45.462;9.210;2023-08-31T13:41:59;1.40;;;0.70;;
40256;SDS011;25977;45.462;9.210;2023-08-31T13:44:27;1.23;;;0.60;;
40256;SDS011;25977;45.462;9.210;2023-08-31T13:46:52;0.50;;;0.50;;
40256;SDS011;25977;45.462;9.210;2023-08-31T13:49:18;1.63;;;0.80;;
40256;SDS011;25977;45.462;9.210;2023-08-31T13:51:44;0.55;;;0.43;;
40256;SDS011;25977;45.462;9.210;2023-08-31T13:54:10;9.88;;;1.50;;
40256;SDS011;25977;45.462;9.210;2023-08-31T13:56:36;6.63;;;0.90;;
40256;SDS011;25977;45.462;9.210;2023-08-31T13:59:02;0.70;;;0.65;;
40256;SDS011;25977;45.462;9.210;2023-08-31T14:01:30;2.25;;;1.08;;
40256;SDS011;25977;45.462;9.210;2023-08-31T14:03:55;0.70;;;0.60;;
40256;SDS011;25977;45.462;9.210;2023-08-31T14:06:21;1.52;;;0.60;;
40256;SDS011;25977;45.462;9.210;2023-08-31T14:08:47;2.08;;;0.63;;
40256;SDS011;25977;45.462;9.210;2023-08-31T14:11:13;2.30;;;0.60;;
40256;SDS011;25977;45.462;9.210;2023-08-31T14:13:39;1.05;;;0.70;;
40256;SDS011;25977;45.462;9.210;2023-08-31T14:16:05;1.90;;;0.50;;
40256;SDS011;25977;45.462;9.210;2023-08-31T14:18:31;3.05;;;0.98;;
40256;SDS011;25977;45.462;9.210;2023-08-31T14:20:57;0.88;;;0.75;;
40256;SDS011;25977;45.462;9.210;2023-08-31T14:23:25;2.15;;;0.70;;
40256;SDS011;25977;45.462;9.210;2023-08-31T14:25:50;6.93;;;1.05;;
40256;SDS011;25977;45.462;9.210;2023-08-31T14:28:16;1.02;;;0.70;;
40256;SDS011;25977;45.462;9.210;2023-08-31T14:30:42;1.23;;;0.80;;
40256;SDS011;25977;45.462;9.210;2023-08-31T14:33:07;2.50;;;0.95;;
40256;SDS011;25977;45.462;9.210;2023-08-31T14:35:36;0.82;;;0.57;;
40256;SDS011;25977;45.462;9.210;2023-08-31T14:38:02;2.35;;;0.80;;
40256;SDS011;25977;45.462;9.210;2023-08-31T14:40:28;2.25;;;0.70;;
40256;SDS011;25977;45.462;9.210;2023-08-31T14:42:54;2.30;;;0.77;;
40256;SDS011;25977;45.462;9.210;2023-08-31T14:45:20;1.73;;;0.85;;
40256;SDS011;25977;45.462;9.210;2023-08-31T14:47:45;0.90;;;0.70;;
40256;SDS011;25977;45.462;9.210;2023-08-31T14:50:11;3.65;;;1.00;;
40256;SDS011;25977;45.462;9.210;2023-08-31T14:52:37;1.52;;;0.68;;
40256;SDS011;25977;45.462;9.210;2023-08-31T14:55:02;2.50;;;1.30;;
40256;SDS011;25977;45.462;9.210;2023-08-31T14:57:29;1.98;;;1.23;;
40256;SDS011;25977;45.462;9.210;2023-08-31T14:59:55;1.77;;;0.60;;
40256;SDS011;25977;45.462;9.210;2023-08-31T15:02:23;1.58;;;0.82;;
40256;SDS011;25977;45.462;9.210;2023-08-31T15:04:49;0.68;;;0.65;;
40256;SDS011;25977;45.462;9.210;2023-08-31T15:07:16;3.00;;;1.67;;
40256;SDS011;25977;45.462;9.210;2023-08-31T15:09:42;1.73;;;0.70;;